sensor_id;sensor_type;location;lat;lon;timestamp;pressure;altitude;pressure_sealevel;temperature;humidity
43450;BME280;29041;42.266;23.110;2023-02-12T00:01:21;96845.59;;;-2.85;68.55
43450;BME280;29041;42.266;23.110;2023-02-12T00:04:10;96838.34;;;-2.96;68.87
43450;BME280;29041;42.266;23.110;2023-02-12T00:06:57;96849.84;;;-2.97;68.21
43450;BME280;29041;42.266;23.110;2023-02-12T00:09:44;96842.03;;;-3.11;68.44
43450;BME280;29041;42.266;23.110;2023-02-12T00:12:31;96841.06;;;-3.16;69.20
43450;BME280;29041;42.266;23.110;2023-02-12T00:15:19;96839.19;;;-3.03;67.51
43450;BME280;29041;42.266;23.110;2023-02-12T00:18:06;96851.69;;;-2.98;67.74
43450;BME280;29041;42.266;23.110;2023-02-12T00:20:58;96853.16;;;-3.15;67.27
43450;BME280;29041;42.266;23.110;2023-02-12T00:23:45;96834.38;;;-3.12;66.89
43450;BME280;29041;42.266;23.110;2023-02-12T00:26:32;96844.03;;;-3.06;66.99
43450;BME280;29041;42.266;23.110;2023-02-12T00:29:19;96837.44;;;-3.22;67.08
43450;BME280;29041;42.266;23.110;2023-02-12T00:32:06;96842.56;;;-3.54;68.48
43450;BME280;29041;42.266;23.110;2023-02-12T00:34:53;96837.66;;;-3.37;68.22
43450;BME280;29041;42.266;23.110;2023-02-12T00:37:42;96833.47;;;-3.45;69.03
43450;BME280;29041;42.266;23.110;2023-02-12T00:40:29;96841.28;;;-3.31;68.51
43450;BME280;29041;42.266;23.110;2023-02-12T00:43:16;96841.34;;;-2.86;66.58
43450;BME280;29041;42.266;23.110;2023-02-12T00:46:04;96842.72;;;-2.77;65.40
43450;BME280;29041;42.266;23.110;2023-02-12T00:48:51;96837.06;;;-3.32;69.10
43450;BME280;29041;42.266;23.110;2023-02-12T00:51:38;96839.31;;;-2.84;67.23
43450;BME280;29041;42.266;23.110;2023-02-12T00:54:27;96835.78;;;-2.71;64.58
43450;BME280;29041;42.266;23.110;2023-02-12T00:57:14;96828.41;;;-2.49;63.81
43450;BME280;29041;42.266;23.110;2023-02-12T01:00:01;96829.97;;;-2.80;65.29
43450;BME280;29041;42.266;23.110;2023-02-12T01:02:49;96835.31;;;-2.93;65.22
43450;BME280;29041;42.266;23.110;2023-02-12T01:05:36;96829.88;;;-2.98;66.35
43450;BME280;29041;42.266;23.110;2023-02-12T01:08:23;96822.47;;;-2.76;65.26
43450;BME280;29041;42.266;23.110;2023-02-12T01:11:12;96829.75;;;-2.72;65.83
43450;BME280;29041;42.266;23.110;2023-02-12T01:13:59;96815.06;;;-2.86;65.24
43450;BME280;29041;42.266;23.110;2023-02-12T01:16:46;96798.50;;;-2.93;65.61
43450;BME280;29041;42.266;23.110;2023-02-12T01:19:33;96802.44;;;-3.09;65.89
43450;BME280;29041;42.266;23.110;2023-02-12T01:22:20;96789.63;;;-2.99;66.00
43450;BME280;29041;42.266;23.110;2023-02-12T01:25:08;96791.16;;;-2.78;65.96
43450;BME280;29041;42.266;23.110;2023-02-12T01:27:57;96792.78;;;-3.22;67.18
43450;BME280;29041;42.266;23.110;2023-02-12T01:30:44;96773.91;;;-3.51;68.86
43450;BME280;29041;42.266;23.110;2023-02-12T01:33:31;96774.41;;;-3.22;66.90
43450;BME280;29041;42.266;23.110;2023-02-12T01:36:18;96786.03;;;-3.57;68.86
43450;BME280;29041;42.266;23.110;2023-02-12T01:39:05;96777.19;;;-3.76;69.91
43450;BME280;29041;42.266;23.110;2023-02-12T01:41:52;96779.22;;;-3.85;71.20
43450;BME280;29041;42.266;23.110;2023-02-12T01:44:45;96768.53;;;-3.83;70.15
43450;BME280;29041;42.266;23.110;2023-02-12T01:47:51;96775.81;;;-4.05;71.91
43450;BME280;29041;42.266;23.110;2023-02-12T01:50:38;96774.97;;;-3.92;72.53
43450;BME280;29041;42.266;23.110;2023-02-12T01:53:30;96779.59;;;-3.09;69.87
43450;BME280;29041;42.266;23.110;2023-02-12T01:56:19;96778.28;;;-3.38;68.55
43450;BME280;29041;42.266;23.110;2023-02-12T01:59:09;96777.81;;;-3.22;66.99
43450;BME280;29041;42.266;23.110;2023-02-12T02:01:58;96773.66;;;-2.97;67.83
43450;BME280;29041;42.266;23.110;2023-02-12T02:04:48;96779.56;;;-3.54;70.58
43450;BME280;29041;42.266;23.110;2023-02-12T02:07:36;96781.38;;;-3.55;71.33
43450;BME280;29041;42.266;23.110;2023-02-12T02:10:24;96772.84;;;-3.37;71.39
43450;BME280;29041;42.266;23.110;2023-02-12T02:13:11;96785.59;;;-3.47;71.84
43450;BME280;29041;42.266;23.110;2023-02-12T02:16:21;96786.00;;;-2.98;68.38
43450;BME280;29041;42.266;23.110;2023-02-12T02:19:22;96793.59;;;-2.83;66.82
43450;BME280;29041;42.266;23.110;2023-02-12T02:22:29;96792.22;;;-2.53;66.35
43450;BME280;29041;42.266;23.110;2023-02-12T02:25:35;96793.97;;;-2.41;63.82
43450;BME280;29041;42.266;23.110;2023-02-12T02:28:58;96794.06;;;-2.93;67.25
43450;BME280;29041;42.266;23.110;2023-02-12T02:31:53;96791.34;;;-2.15;63.41
43450;BME280;29041;42.266;23.110;2023-02-12T02:34:49;96786.50;;;-2.18;64.55
43450;BME280;29041;42.266;23.110;2023-02-12T02:37:39;96794.19;;;-2.42;65.31
43450;BME280;29041;42.266;23.110;2023-02-12T02:40:34;96783.72;;;-2.24;65.19
43450;BME280;29041;42.266;23.110;2023-02-12T02:43:27;96773.09;;;-2.67;66.76
43450;BME280;29041;42.266;23.110;2023-02-12T02:46:21;96778.44;;;-2.81;67.01
43450;BME280;29041;42.266;23.110;2023-02-12T02:49:16;96783.84;;;-3.14;70.14
43450;BME280;29041;42.266;23.110;2023-02-12T02:52:08;96775.19;;;-3.15;69.66
43450;BME280;29041;42.266;23.110;2023-02-12T02:55:01;96778.44;;;-2.81;68.24
43450;BME280;29041;42.266;23.110;2023-02-12T02:57:52;96763.59;;;-3.07;69.02
43450;BME280;29041;42.266;23.110;2023-02-12T03:00:43;96769.75;;;-2.81;67.67
43450;BME280;29041;42.266;23.110;2023-02-12T03:03:35;96778.78;;;-2.71;66.04
43450;BME280;29041;42.266;23.110;2023-02-12T03:06:29;96781.66;;;-2.47;64.37
43450;BME280;29041;42.266;23.110;2023-02-12T03:09:30;96780.78;;;-2.09;60.00
43450;BME280;29041;42.266;23.110;2023-02-12T03:12:21;96775.66;;;-1.41;57.14
43450;BME280;29041;42.266;23.110;2023-02-12T03:15:14;96766.31;;;-1.06;54.50
43450;BME280;29041;42.266;23.110;2023-02-12T03:18:06;96773.16;;;-1.17;55.71
43450;BME280;29041;42.266;23.110;2023-02-12T03:20:59;96768.41;;;-1.64;58.23
43450;BME280;29041;42.266;23.110;2023-02-12T03:23:53;96779.72;;;-1.45;58.28
43450;BME280;29041;42.266;23.110;2023-02-12T03:26:44;96777.31;;;-1.47;58.17
43450;BME280;29041;42.266;23.110;2023-02-12T03:29:32;96780.56;;;-1.88;60.71
43450;BME280;29041;42.266;23.110;2023-02-12T03:32:28;96798.53;;;-2.04;61.48
43450;BME280;29041;42.266;23.110;2023-02-12T03:35:20;96793.47;;;-2.31;63.12
43450;BME280;29041;42.266;23.110;2023-02-12T03:38:13;96782.19;;;-2.70;64.71
43450;BME280;29041;42.266;23.110;2023-02-12T03:41:08;96787.06;;;-2.74;65.90
43450;BME280;29041;42.266;23.110;2023-02-12T03:44:04;96789.03;;;-2.62;65.57
43450;BME280;29041;42.266;23.110;2023-02-12T03:46:59;96797.88;;;-2.57;65.26
43450;BME280;29041;42.266;23.110;2023-02-12T03:49:54;96789.84;;;-2.62;65.83
43450;BME280;29041;42.266;23.110;2023-02-12T03:52:45;96776.22;;;-2.52;64.44
43450;BME280;29041;42.266;23.110;2023-02-12T03:55:35;96759.69;;;-2.59;64.64
43450;BME280;29041;42.266;23.110;2023-02-12T03:58:29;96769.69;;;-2.43;64.27
43450;BME280;29041;42.266;23.110;2023-02-12T04:01:18;96766.16;;;-2.55;64.66
43450;BME280;29041;42.266;23.110;2023-02-12T04:04:07;96757.63;;;-2.25;63.89
43450;BME280;29041;42.266;23.110;2023-02-12T04:06:55;96756.88;;;-2.32;64.38
43450;BME280;29041;42.266;23.110;2023-02-12T04:09:42;96756.50;;;-2.11;63.37
43450;BME280;29041;42.266;23.110;2023-02-12T04:12:34;96744.38;;;-1.93;63.14
43450;BME280;29041;42.266;23.110;2023-02-12T04:15:40;96758.22;;;-1.98;62.40
43450;BME280;29041;42.266;23.110;2023-02-12T04:18:34;96765.50;;;-1.81;62.61
43450;BME280;29041;42.266;23.110;2023-02-12T04:21:37;96758.09;;;-2.10;63.57
43450;BME280;29041;42.266;23.110;2023-02-12T04:24:36;96743.53;;;-1.87;62.68
43450;BME280;29041;42.266;23.110;2023-02-12T04:27:35;96739.69;;;-2.10;63.53
43450;BME280;29041;42.266;23.110;2023-02-12T04:30:27;96770.44;;;-2.10;63.65
43450;BME280;29041;42.266;23.110;2023-02-12T04:33:22;96766.63;;;-1.89;63.01
43450;BME280;29041;42.266;23.110;2023-02-12T04:36:14;96761.22;;;-1.94;63.34
43450;BME280;29041;42.266;23.110;2023-02-12T04:39:06;96765.31;;;-1.80;63.36
43450;BME280;29041;42.266;23.110;2023-02-12T04:41:57;96752.97;;;-1.61;62.99
43450;BME280;29041;42.266;23.110;2023-02-12T04:44:45;96746.25;;;-1.75;63.42
43450;BME280;29041;42.266;23.110;2023-02-12T04:47:32;96750.13;;;-1.59;62.21
43450;BME280;29041;42.266;23.110;2023-02-12T04:50:21;96755.50;;;-1.54;62.73
43450;BME280;29041;42.266;23.110;2023-02-12T04:53:09;96757.56;;;-1.56;62.08
43450;BME280;29041;42.266;23.110;2023-02-12T04:55:56;96764.88;;;-1.39;61.79
43450;BME280;29041;42.266;23.110;2023-02-12T04:58:43;96751.47;;;-1.19;62.01
43450;BME280;29041;42.266;23.110;2023-02-12T05:01:32;96754.31;;;-0.72;60.59
43450;BME280;29041;42.266;23.110;2023-02-12T05:04:19;96761.91;;;-0.63;59.59
43450;BME280;29041;42.266;23.110;2023-02-12T05:07:10;96765.59;;;-0.83;60.36
43450;BME280;29041;42.266;23.110;2023-02-12T05:09:57;96762.38;;;-1.16;62.26
43450;BME280;29041;42.266;23.110;2023-02-12T05:12:45;96752.38;;;-1.25;62.56
43450;BME280;29041;42.266;23.110;2023-02-12T05:15:32;96763.22;;;-1.03;62.23
43450;BME280;29041;42.266;23.110;2023-02-12T05:18:19;96745.06;;;-1.23;62.54
43450;BME280;29041;42.266;23.110;2023-02-12T05:21:06;96759.88;;;-1.10;61.96
43450;BME280;29041;42.266;23.110;2023-02-12T05:23:55;96764.50;;;-0.75;61.20
43450;BME280;29041;42.266;23.110;2023-02-12T05:26:44;96747.56;;;-0.56;60.47
43450;BME280;29041;42.266;23.110;2023-02-12T05:29:31;96760.56;;;-0.42;59.25
43450;BME280;29041;42.266;23.110;2023-02-12T05:32:20;96775.19;;;0.08;58.20
43450;BME280;29041;42.266;23.110;2023-02-12T05:35:08;96760.63;;;0.29;56.88
43450;BME280;29041;42.266;23.110;2023-02-12T05:37:55;96769.56;;;0.52;55.80
43450;BME280;29041;42.266;23.110;2023-02-12T05:40:43;96777.00;;;0.43;56.90
43450;BME280;29041;42.266;23.110;2023-02-12T05:43:32;96805.72;;;0.15;58.33
43450;BME280;29041;42.266;23.110;2023-02-12T05:46:20;96797.69;;;0.22;57.55
43450;BME280;29041;42.266;23.110;2023-02-12T05:49:07;96794.72;;;0.30;57.05
43450;BME280;29041;42.266;23.110;2023-02-12T05:51:54;96803.56;;;0.48;56.26
43450;BME280;29041;42.266;23.110;2023-02-12T05:54:41;96822.59;;;0.38;55.96
43450;BME280;29041;42.266;23.110;2023-02-12T05:57:30;96829.72;;;0.73;55.34
43450;BME280;29041;42.266;23.110;2023-02-12T06:00:18;96832.59;;;0.72;55.26
43450;BME280;29041;42.266;23.110;2023-02-12T06:03:05;96836.56;;;0.98;54.60
43450;BME280;29041;42.266;23.110;2023-02-12T06:05:52;96844.47;;;1.10;54.83
43450;BME280;29041;42.266;23.110;2023-02-12T06:08:39;96856.69;;;0.99;55.72
43450;BME280;29041;42.266;23.110;2023-02-12T06:11:27;96859.00;;;0.95;56.82
43450;BME280;29041;42.266;23.110;2023-02-12T06:14:17;96866.13;;;0.95;58.40
43450;BME280;29041;42.266;23.110;2023-02-12T06:17:05;96861.31;;;0.68;62.50
43450;BME280;29041;42.266;23.110;2023-02-12T06:19:53;96875.00;;;0.65;64.66
43450;BME280;29041;42.266;23.110;2023-02-12T06:22:40;96867.28;;;0.75;66.20
43450;BME280;29041;42.266;23.110;2023-02-12T06:25:27;96869.47;;;0.55;67.04
43450;BME280;29041;42.266;23.110;2023-02-12T06:28:14;96877.06;;;0.51;67.73
43450;BME280;29041;42.266;23.110;2023-02-12T06:31:04;96875.22;;;0.75;67.49
43450;BME280;29041;42.266;23.110;2023-02-12T06:33:51;96879.25;;;0.66;69.38
43450;BME280;29041;42.266;23.110;2023-02-12T06:36:40;96881.56;;;0.51;70.49
43450;BME280;29041;42.266;23.110;2023-02-12T06:39:30;96867.75;;;0.25;72.82
43450;BME280;29041;42.266;23.110;2023-02-12T06:42:17;96866.13;;;0.12;73.79
43450;BME280;29041;42.266;23.110;2023-02-12T06:45:04;96861.75;;;0.18;74.93
43450;BME280;29041;42.266;23.110;2023-02-12T06:47:53;96873.38;;;0.40;73.18
43450;BME280;29041;42.266;23.110;2023-02-12T06:50:40;96864.88;;;0.38;74.94
43450;BME280;29041;42.266;23.110;2023-02-12T06:53:27;96866.00;;;0.07;75.85
43450;BME280;29041;42.266;23.110;2023-02-12T06:56:14;96854.66;;;0.18;74.63
43450;BME280;29041;42.266;23.110;2023-02-12T06:59:01;96852.34;;;0.45;72.87
43450;BME280;29041;42.266;23.110;2023-02-12T07:01:48;96851.09;;;0.72;71.56
43450;BME280;29041;42.266;23.110;2023-02-12T07:04:38;96863.41;;;0.66;72.18
43450;BME280;29041;42.266;23.110;2023-02-12T07:07:25;96855.13;;;0.62;72.93
43450;BME280;29041;42.266;23.110;2023-02-12T07:10:12;96852.94;;;0.47;73.90
43450;BME280;29041;42.266;23.110;2023-02-12T07:12:59;96844.22;;;0.47;73.69
43450;BME280;29041;42.266;23.110;2023-02-12T07:15:46;96852.59;;;0.68;71.69
43450;BME280;29041;42.266;23.110;2023-02-12T07:18:34;96840.72;;;0.94;70.64
43450;BME280;29041;42.266;23.110;2023-02-12T07:21:22;96843.97;;;0.72;71.87
43450;BME280;29041;42.266;23.110;2023-02-12T07:24:10;96841.88;;;0.86;70.67
43450;BME280;29041;42.266;23.110;2023-02-12T07:26:57;96839.72;;;0.71;72.67
43450;BME280;29041;42.266;23.110;2023-02-12T07:29:44;96834.53;;;0.76;71.84
43450;BME280;29041;42.266;23.110;2023-02-12T07:32:32;96824.13;;;0.58;72.97
43450;BME280;29041;42.266;23.110;2023-02-12T07:35:24;96812.63;;;0.52;72.67
43450;BME280;29041;42.266;23.110;2023-02-12T07:38:33;96823.09;;;0.59;73.00
43450;BME280;29041;42.266;23.110;2023-02-12T07:41:40;96799.31;;;0.47;73.34
43450;BME280;29041;42.266;23.110;2023-02-12T07:44:31;96824.72;;;1.01;71.47
43450;BME280;29041;42.266;23.110;2023-02-12T07:51:17;96801.69;;;0.72;72.73
43450;BME280;29041;42.266;23.110;2023-02-12T07:58:22;96808.50;;;0.97;71.42
43450;BME280;29041;42.266;23.110;2023-02-12T08:01:50;96786.44;;;0.51;71.98
43450;BME280;29041;42.266;23.110;2023-02-12T08:05:21;96818.41;;;0.90;72.33
43450;BME280;29041;42.266;23.110;2023-02-12T08:08:12;96784.22;;;0.71;73.02
43450;BME280;29041;42.266;23.110;2023-02-12T08:11:12;96800.84;;;1.24;70.65
43450;BME280;29041;42.266;23.110;2023-02-12T08:14:07;96803.56;;;1.41;69.77
43450;BME280;29041;42.266;23.110;2023-02-12T08:19:41;96803.63;;;1.18;71.76
43450;BME280;29041;42.266;23.110;2023-02-12T08:22:52;96803.63;;;1.18;73.37
43450;BME280;29041;42.266;23.110;2023-02-12T08:26:11;96794.19;;;0.81;74.92
43450;BME280;29041;42.266;23.110;2023-02-12T08:29:05;96814.31;;;1.23;74.16
43450;BME280;29041;42.266;23.110;2023-02-12T08:31:56;96827.19;;;1.48;73.19
43450;BME280;29041;42.266;23.110;2023-02-12T08:34:46;96792.44;;;1.27;72.34
43450;BME280;29041;42.266;23.110;2023-02-12T08:37:39;96833.09;;;1.67;71.34
43450;BME280;29041;42.266;23.110;2023-02-12T08:40:26;96833.03;;;1.62;70.79
43450;BME280;29041;42.266;23.110;2023-02-12T08:43:14;96847.31;;;1.20;73.30
43450;BME280;29041;42.266;23.110;2023-02-12T08:59:24;96852.72;;;1.54;70.29
43450;BME280;29041;42.266;23.110;2023-02-12T09:02:41;96879.13;;;1.37;72.74
43450;BME280;29041;42.266;23.110;2023-02-12T09:24:24;96888.91;;;1.49;71.67
43450;BME280;29041;42.266;23.110;2023-02-12T09:27:18;96883.72;;;1.42;71.54
43450;BME280;29041;42.266;23.110;2023-02-12T09:32:45;96895.88;;;1.55;70.63
43450;BME280;29041;42.266;23.110;2023-02-12T09:35:35;96897.28;;;1.46;70.66
43450;BME280;29041;42.266;23.110;2023-02-12T09:38:53;96901.28;;;1.60;69.61
43450;BME280;29041;42.266;23.110;2023-02-12T09:42:43;96901.59;;;1.64;70.08
43450;BME280;29041;42.266;23.110;2023-02-12T09:45:52;96902.72;;;1.68;70.75
43450;BME280;29041;42.266;23.110;2023-02-12T09:51:44;96900.81;;;1.63;71.29
43450;BME280;29041;42.266;23.110;2023-02-12T09:58:32;96893.53;;;1.41;72.61
43450;BME280;29041;42.266;23.110;2023-02-12T10:01:40;96900.28;;;1.49;72.86
43450;BME280;29041;42.266;23.110;2023-02-12T10:05:00;96897.91;;;1.36;73.04
43450;BME280;29041;42.266;23.110;2023-02-12T10:08:21;96900.50;;;1.48;73.27
43450;BME280;29041;42.266;23.110;2023-02-12T10:11:29;96901.59;;;1.64;72.20
43450;BME280;29041;42.266;23.110;2023-02-12T10:14:50;96903.78;;;1.67;71.95
43450;BME280;29041;42.266;23.110;2023-02-12T10:20:35;96890.47;;;1.50;72.93
43450;BME280;29041;42.266;23.110;2023-02-12T10:23:52;96892.03;;;1.34;73.84
43450;BME280;29041;42.266;23.110;2023-02-12T10:27:08;96895.06;;;1.14;74.61
43450;BME280;29041;42.266;23.110;2023-02-12T10:30:14;96893.41;;;1.36;74.90
43450;BME280;29041;42.266;23.110;2023-02-12T10:33:12;96883.84;;;1.35;74.85
43450;BME280;29041;42.266;23.110;2023-02-12T10:36:36;96895.06;;;1.54;73.74
43450;BME280;29041;42.266;23.110;2023-02-12T10:42:11;96848.03;;;1.16;74.86
43450;BME280;29041;42.266;23.110;2023-02-12T10:45:31;96899.47;;;1.08;75.62
43450;BME280;29041;42.266;23.110;2023-02-12T10:48:59;96871.66;;;0.82;76.15
43450;BME280;29041;42.266;23.110;2023-02-12T10:52:27;96916.47;;;1.12;76.43
43450;BME280;29041;42.266;23.110;2023-02-12T10:55:38;96914.03;;;1.22;76.87
43450;BME280;29041;42.266;23.110;2023-02-12T10:58:58;96877.91;;;1.16;76.30
43450;BME280;29041;42.266;23.110;2023-02-12T11:01:54;96892.56;;;1.07;76.77
43450;BME280;29041;42.266;23.110;2023-02-12T11:10:19;96876.66;;;1.19;77.62
43450;BME280;29041;42.266;23.110;2023-02-12T11:13:35;96859.72;;;1.20;77.76
43450;BME280;29041;42.266;23.110;2023-02-12T12:48:06;96798.50;;;5.14;61.88
43450;BME280;29041;42.266;23.110;2023-02-12T12:55:26;96808.06;;;5.10;62.28
43450;BME280;29041;42.266;23.110;2023-02-12T14:40:59;96911.56;;;3.49;68.40
43450;BME280;29041;42.266;23.110;2023-02-12T14:44:53;96894.22;;;3.19;68.96
43450;BME280;29041;42.266;23.110;2023-02-12T14:51:40;96933.78;;;3.21;70.38
43450;BME280;29041;42.266;23.110;2023-02-12T14:54:55;96925.56;;;3.00;71.01
43450;BME280;29041;42.266;23.110;2023-02-12T16:41:56;97140.97;;;2.15;78.59
43450;BME280;29041;42.266;23.110;2023-02-12T16:44:51;97128.22;;;2.00;78.50
43450;BME280;29041;42.266;23.110;2023-02-12T16:47:58;97121.06;;;2.01;77.21
43450;BME280;29041;42.266;23.110;2023-02-12T16:50:56;97166.53;;;2.21;76.98
43450;BME280;29041;42.266;23.110;2023-02-12T16:56:39;97128.00;;;1.66;78.39
43450;BME280;29041;42.266;23.110;2023-02-12T17:02:31;97156.09;;;1.67;80.37
43450;BME280;29041;42.266;23.110;2023-02-12T17:16:00;97201.59;;;1.22;83.89
43450;BME280;29041;42.266;23.110;2023-02-12T17:19:13;97172.47;;;1.22;83.09
43450;BME280;29041;42.266;23.110;2023-02-12T17:22:17;97204.53;;;1.68;81.75
43450;BME280;29041;42.266;23.110;2023-02-12T17:25:19;97195.22;;;1.41;81.47
43450;BME280;29041;42.266;23.110;2023-02-12T17:28:16;97212.84;;;1.60;80.10
43450;BME280;29041;42.266;23.110;2023-02-12T17:31:30;97215.56;;;1.41;80.93
43450;BME280;29041;42.266;23.110;2023-02-12T17:34:41;97222.25;;;1.55;80.74
43450;BME280;29041;42.266;23.110;2023-02-12T17:37:49;97236.09;;;1.69;80.22
43450;BME280;29041;42.266;23.110;2023-02-12T17:40:37;97228.19;;;1.39;80.04
43450;BME280;29041;42.266;23.110;2023-02-12T17:46:12;97273.81;;;1.53;79.70
43450;BME280;29041;42.266;23.110;2023-02-12T17:49:03;97228.56;;;1.42;79.62
43450;BME280;29041;42.266;23.110;2023-02-12T17:52:16;97258.19;;;1.63;79.77
43450;BME280;29041;42.266;23.110;2023-02-12T17:55:17;97259.34;;;1.67;79.75
43450;BME280;29041;42.266;23.110;2023-02-12T17:58:09;97237.91;;;1.57;79.09
43450;BME280;29041;42.266;23.110;2023-02-12T18:01:05;97265.34;;;1.74;80.03
43450;BME280;29041;42.266;23.110;2023-02-12T18:03:57;97212.47;;;1.14;81.58
43450;BME280;29041;42.266;23.110;2023-02-12T18:06:47;97226.97;;;1.41;80.23
43450;BME280;29041;42.266;23.110;2023-02-12T18:10:03;97237.56;;;1.11;83.24
43450;BME280;29041;42.266;23.110;2023-02-12T18:13:04;97263.22;;;1.10;83.56
43450;BME280;29041;42.266;23.110;2023-02-12T18:16:08;97222.16;;;1.20;81.72
43450;BME280;29041;42.266;23.110;2023-02-12T18:19:34;97280.53;;;1.25;84.34
43450;BME280;29041;42.266;23.110;2023-02-12T18:22:25;97243.41;;;0.83;85.72
43450;BME280;29041;42.266;23.110;2023-02-12T18:25:15;97267.28;;;1.25;84.21
43450;BME280;29041;42.266;23.110;2023-02-12T18:38:38;97261.22;;;1.06;84.78
43450;BME280;29041;42.266;23.110;2023-02-12T18:49:13;97316.78;;;1.36;85.14
43450;BME280;29041;42.266;23.110;2023-02-12T18:52:20;97331.06;;;1.35;85.67
43450;BME280;29041;42.266;23.110;2023-02-12T18:55:15;97316.19;;;1.04;86.29
43450;BME280;29041;42.266;23.110;2023-02-12T18:58:06;97290.41;;;0.99;85.99
43450;BME280;29041;42.266;23.110;2023-02-12T19:01:24;97341.69;;;1.17;87.00
43450;BME280;29041;42.266;23.110;2023-02-12T19:04:48;97303.78;;;0.67;88.65
43450;BME280;29041;42.266;23.110;2023-02-12T19:07:41;97306.13;;;0.57;90.39
43450;BME280;29041;42.266;23.110;2023-02-12T19:10:49;97279.75;;;0.31;90.21
43450;BME280;29041;42.266;23.110;2023-02-12T19:13:38;97303.81;;;0.23;91.08
43450;BME280;29041;42.266;23.110;2023-02-12T19:16:53;97321.84;;;0.52;89.05
43450;BME280;29041;42.266;23.110;2023-02-12T19:20:46;97329.84;;;0.63;88.82
43450;BME280;29041;42.266;23.110;2023-02-12T19:24:00;97325.31;;;1.08;86.24
43450;BME280;29041;42.266;23.110;2023-02-12T19:26:53;97361.50;;;1.07;86.20
43450;BME280;29041;42.266;23.110;2023-02-12T19:29:43;97332.72;;;0.81;85.50
43450;BME280;29041;42.266;23.110;2023-02-12T19:32:35;97356.06;;;0.84;86.52
43450;BME280;29041;42.266;23.110;2023-02-12T19:35:31;97337.84;;;0.75;86.86
43450;BME280;29041;42.266;23.110;2023-02-12T19:38:24;97356.94;;;1.15;86.08
43450;BME280;29041;42.266;23.110;2023-02-12T19:41:25;97309.50;;;0.64;87.15
43450;BME280;29041;42.266;23.110;2023-02-12T19:44:16;97338.06;;;0.74;88.19
43450;BME280;29041;42.266;23.110;2023-02-12T19:47:03;97363.72;;;0.73;89.61
43450;BME280;29041;42.266;23.110;2023-02-12T19:49:55;97369.00;;;0.92;88.80
43450;BME280;29041;42.266;23.110;2023-02-12T19:52:43;97367.25;;;0.86;89.91
43450;BME280;29041;42.266;23.110;2023-02-12T19:55:33;97373.22;;;0.56;91.04
43450;BME280;29041;42.266;23.110;2023-02-12T19:58:21;97370.63;;;0.74;92.95
43450;BME280;29041;42.266;23.110;2023-02-12T20:01:09;97371.84;;;0.72;91.20
43450;BME280;29041;42.266;23.110;2023-02-12T20:03:57;97369.41;;;0.52;92.43
43450;BME280;29041;42.266;23.110;2023-02-12T20:06:44;97368.66;;;0.44;92.54
43450;BME280;29041;42.266;23.110;2023-02-12T20:09:32;97375.72;;;0.51;92.77
43450;BME280;29041;42.266;23.110;2023-02-12T20:12:20;97380.19;;;0.25;94.67
43450;BME280;29041;42.266;23.110;2023-02-12T20:20:22;97388.19;;;0.18;95.49
43450;BME280;29041;42.266;23.110;2023-02-12T20:25:49;97400.41;;;0.12;95.81
43450;BME280;29041;42.266;23.110;2023-02-12T20:28:48;97388.72;;;-0.05;98.32
43450;BME280;29041;42.266;23.110;2023-02-12T20:42:28;97411.06;;;-0.01;98.05
43450;BME280;29041;42.266;23.110;2023-02-12T21:02:27;97408.09;;;-0.18;99.22
43450;BME280;29041;42.266;23.110;2023-02-12T21:05:19;97391.09;;;-0.29;98.64
43450;BME280;29041;42.266;23.110;2023-02-12T21:08:20;97402.16;;;-0.07;98.07
43450;BME280;29041;42.266;23.110;2023-02-12T21:20:47;97447.25;;;-0.08;98.88
43450;BME280;29041;42.266;23.110;2023-02-12T21:23:49;97441.47;;;-0.30;99.55
43450;BME280;29041;42.266;23.110;2023-02-12T21:26:39;97423.59;;;-0.28;100.00
43450;BME280;29041;42.266;23.110;2023-02-12T21:29:26;97434.06;;;-0.54;100.00
43450;BME280;29041;42.266;23.110;2023-02-12T21:32:17;97450.88;;;-0.48;100.00
43450;BME280;29041;42.266;23.110;2023-02-12T21:35:05;97453.81;;;-0.18;99.67
43450;BME280;29041;42.266;23.110;2023-02-12T21:37:53;97460.50;;;-0.22;100.00
43450;BME280;29041;42.266;23.110;2023-02-12T21:40:41;97462.34;;;-0.22;100.00
43450;BME280;29041;42.266;23.110;2023-02-12T21:43:28;97467.09;;;-0.38;100.00
43450;BME280;29041;42.266;23.110;2023-02-12T21:46:15;97471.56;;;-0.38;100.00
43450;BME280;29041;42.266;23.110;2023-02-12T21:49:03;97461.41;;;-0.35;100.00
43450;BME280;29041;42.266;23.110;2023-02-12T21:51:52;97470.94;;;0.05;98.56
43450;BME280;29041;42.266;23.110;2023-02-12T21:54:41;97474.91;;;-0.18;99.74
43450;BME280;29041;42.266;23.110;2023-02-12T21:57:28;97467.25;;;-0.26;99.67
43450;BME280;29041;42.266;23.110;2023-02-12T22:00:17;97478.84;;;-0.34;100.00
43450;BME280;29041;42.266;23.110;2023-02-12T22:03:05;97480.94;;;-0.49;100.00
43450;BME280;29041;42.266;23.110;2023-02-12T22:05:52;97483.38;;;-0.54;100.00
43450;BME280;29041;42.266;23.110;2023-02-12T22:08:45;97488.81;;;-0.42;100.00
43450;BME280;29041;42.266;23.110;2023-02-12T22:11:34;97501.09;;;-0.16;99.90
43450;BME280;29041;42.266;23.110;2023-02-12T22:14:21;97500.38;;;-0.30;99.60
43450;BME280;29041;42.266;23.110;2023-02-12T22:17:08;97485.72;;;-0.26;99.31
43450;BME280;29041;42.266;23.110;2023-02-12T22:19:55;97507.25;;;-0.29;98.82
43450;BME280;29041;42.266;23.110;2023-02-12T22:22:43;97500.94;;;-0.28;98.43
43450;BME280;29041;42.266;23.110;2023-02-12T22:25:32;97511.09;;;-0.32;98.07
43450;BME280;29041;42.266;23.110;2023-02-12T22:28:20;97513.03;;;0.00;96.73
43450;BME280;29041;42.266;23.110;2023-02-12T22:31:11;97514.75;;;-0.26;97.80
43450;BME280;29041;42.266;23.110;2023-02-12T22:34:01;97515.59;;;-0.39;99.76
43450;BME280;29041;42.266;23.110;2023-02-12T22:36:48;97514.59;;;-0.38;98.70
43450;BME280;29041;42.266;23.110;2023-02-12T22:39:35;97509.19;;;-0.11;97.09
43450;BME280;29041;42.266;23.110;2023-02-12T22:42:24;97509.41;;;-0.06;95.79
43450;BME280;29041;42.266;23.110;2023-02-12T22:45:13;97509.34;;;0.01;95.61
43450;BME280;29041;42.266;23.110;2023-02-12T22:48:03;97503.25;;;0.07;94.78
43450;BME280;29041;42.266;23.110;2023-02-12T22:50:51;97477.91;;;-0.07;93.81